sensor_id;sensor_type;location;lat;lon;timestamp;temperature;humidity
25250;DHT22;13201;51.148;13.738;2023-11-21T00:00:20;8.90;99.90
25250;DHT22;13201;51.148;13.738;2023-11-21T00:02:46;9.00;99.90
25250;DHT22;13201;51.148;13.738;2023-11-21T00:05:13;9.00;99.90
25250;DHT22;13201;51.148;13.738;2023-11-21T00:07:40;9.10;99.90
25250;DHT22;13201;51.148;13.738;2023-11-21T00:10:06;9.00;99.90
25250;DHT22;13201;51.148;13.738;2023-11-21T00:12:36;9.10;99.90
25250;DHT22;13201;51.148;13.738;2023-11-21T00:15:03;9.10;99.90
25250;DHT22;13201;51.148;13.738;2023-11-21T00:17:30;9.10;99.90
25250;DHT22;13201;51.148;13.738;2023-11-21T00:19:56;9.20;99.90
25250;DHT22;13201;51.148;13.738;2023-11-21T00:22:22;9.20;99.90
25250;DHT22;13201;51.148;13.738;2023-11-21T00:24:48;9.10;99.90
25250;DHT22;13201;51.148;13.738;2023-11-21T00:27:13;9.20;99.90
25250;DHT22;13201;51.148;13.738;2023-11-21T00:29:40;9.20;99.90
25250;DHT22;13201;51.148;13.738;2023-11-21T00:32:06;9.20;99.90
25250;DHT22;13201;51.148;13.738;2023-11-21T00:34:32;9.10;99.90
25250;DHT22;13201;51.148;13.738;2023-11-21T00:36:58;9.10;99.90
25250;DHT22;13201;51.148;13.738;2023-11-21T00:39:24;9.10;99.90
25250;DHT22;13201;51.148;13.738;2023-11-21T00:41:51;9.20;99.90
25250;DHT22;13201;51.148;13.738;2023-11-21T00:44:17;9.20;99.90
25250;DHT22;13201;51.148;13.738;2023-11-21T00:46:43;9.20;99.90
25250;DHT22;13201;51.148;13.738;2023-11-21T00:49:08;9.20;99.90
25250;DHT22;13201;51.148;13.738;2023-11-21T00:51:34;9.20;99.90
25250;DHT22;13201;51.148;13.738;2023-11-21T00:54:00;9.20;99.90
25250;DHT22;13201;51.148;13.738;2023-11-21T00:56:26;9.20;99.90
25250;DHT22;13201;51.148;13.738;2023-11-21T00:58:52;9.30;99.90
25250;DHT22;13201;51.148;13.738;2023-11-21T01:01:19;9.30;99.90
25250;DHT22;13201;51.148;13.738;2023-11-21T01:28:14;8.50;99.90
25250;DHT22;13201;51.148;13.738;2023-11-21T01:30:39;8.40;99.90
25250;DHT22;13201;51.148;13.738;2023-11-21T01:33:05;8.50;99.90
25250;DHT22;13201;51.148;13.738;2023-11-21T01:35:31;8.60;99.90
25250;DHT22;13201;51.148;13.738;2023-11-21T01:37:56;8.70;99.90
25250;DHT22;13201;51.148;13.738;2023-11-21T01:40:22;8.80;99.90
25250;DHT22;13201;51.148;13.738;2023-11-21T01:42:48;8.90;99.90
25250;DHT22;13201;51.148;13.738;2023-11-21T01:45:13;9.00;99.90
25250;DHT22;13201;51.148;13.738;2023-11-21T01:47:41;9.10;99.90
25250;DHT22;13201;51.148;13.738;2023-11-21T01:50:09;9.10;99.90
25250;DHT22;13201;51.148;13.738;2023-11-21T01:52:38;9.10;99.90
25250;DHT22;13201;51.148;13.738;2023-11-21T01:55:06;9.20;99.90
25250;DHT22;13201;51.148;13.738;2023-11-21T01:57:35;9.20;99.90
25250;DHT22;13201;51.148;13.738;2023-11-21T02:00:02;9.20;99.90
25250;DHT22;13201;51.148;13.738;2023-11-21T02:02:49;9.30;99.90
25250;DHT22;13201;51.148;13.738;2023-11-21T02:05:16;9.20;99.90
25250;DHT22;13201;51.148;13.738;2023-11-21T02:07:45;9.30;99.90
25250;DHT22;13201;51.148;13.738;2023-11-21T02:10:15;9.30;99.90
25250;DHT22;13201;51.148;13.738;2023-11-21T02:12:42;9.30;99.90
25250;DHT22;13201;51.148;13.738;2023-11-21T02:15:10;9.30;99.90
25250;DHT22;13201;51.148;13.738;2023-11-21T02:17:43;9.20;99.90
25250;DHT22;13201;51.148;13.738;2023-11-21T02:20:13;9.30;99.90
25250;DHT22;13201;51.148;13.738;2023-11-21T02:22:52;9.30;99.90
25250;DHT22;13201;51.148;13.738;2023-11-21T02:25:29;9.30;99.90
25250;DHT22;13201;51.148;13.738;2023-11-21T02:27:56;9.30;99.90
25250;DHT22;13201;51.148;13.738;2023-11-21T02:30:22;9.30;99.90
25250;DHT22;13201;51.148;13.738;2023-11-21T02:32:51;9.30;99.90
25250;DHT22;13201;51.148;13.738;2023-11-21T02:35:20;9.30;99.90
25250;DHT22;13201;51.148;13.738;2023-11-21T02:37:49;9.20;99.90
25250;DHT22;13201;51.148;13.738;2023-11-21T02:40:15;9.20;99.90
25250;DHT22;13201;51.148;13.738;2023-11-21T02:42:44;9.20;99.90
25250;DHT22;13201;51.148;13.738;2023-11-21T02:45:10;9.30;99.90
25250;DHT22;13201;51.148;13.738;2023-11-21T02:47:38;9.40;99.90
25250;DHT22;13201;51.148;13.738;2023-11-21T02:50:04;9.30;99.90
25250;DHT22;13201;51.148;13.738;2023-11-21T02:52:31;9.40;99.90
25250;DHT22;13201;51.148;13.738;2023-11-21T02:54:59;9.40;99.90
25250;DHT22;13201;51.148;13.738;2023-11-21T02:57:24;9.50;99.90
25250;DHT22;13201;51.148;13.738;2023-11-21T02:59:50;9.40;99.90
25250;DHT22;13201;51.148;13.738;2023-11-21T03:02:16;9.40;99.90
25250;DHT22;13201;51.148;13.738;2023-11-21T03:04:41;9.40;99.90
25250;DHT22;13201;51.148;13.738;2023-11-21T03:07:08;9.30;99.90
25250;DHT22;13201;51.148;13.738;2023-11-21T03:09:35;9.30;99.90
25250;DHT22;13201;51.148;13.738;2023-11-21T03:12:01;9.20;99.90
25250;DHT22;13201;51.148;13.738;2023-11-21T03:14:27;9.10;99.90
25250;DHT22;13201;51.148;13.738;2023-11-21T03:16:53;9.10;99.90
25250;DHT22;13201;51.148;13.738;2023-11-21T03:19:18;9.20;99.90
25250;DHT22;13201;51.148;13.738;2023-11-21T03:21:44;9.20;99.90
25250;DHT22;13201;51.148;13.738;2023-11-21T03:24:10;9.10;99.90
25250;DHT22;13201;51.148;13.738;2023-11-21T03:26:36;9.00;99.90
25250;DHT22;13201;51.148;13.738;2023-11-21T03:29:02;9.00;99.90
25250;DHT22;13201;51.148;13.738;2023-11-21T03:31:28;9.00;99.90
25250;DHT22;13201;51.148;13.738;2023-11-21T03:33:54;9.10;99.90
25250;DHT22;13201;51.148;13.738;2023-11-21T03:36:20;9.20;99.90
25250;DHT22;13201;51.148;13.738;2023-11-21T03:38:45;9.10;99.90
25250;DHT22;13201;51.148;13.738;2023-11-21T03:41:11;9.20;99.90
25250;DHT22;13201;51.148;13.738;2023-11-21T03:43:37;9.20;99.90
25250;DHT22;13201;51.148;13.738;2023-11-21T03:46:03;9.20;99.90
25250;DHT22;13201;51.148;13.738;2023-11-21T03:48:29;9.20;99.90
25250;DHT22;13201;51.148;13.738;2023-11-21T03:50:55;9.20;99.90
25250;DHT22;13201;51.148;13.738;2023-11-21T03:53:21;9.20;99.90
25250;DHT22;13201;51.148;13.738;2023-11-21T03:55:46;9.10;99.90
25250;DHT22;13201;51.148;13.738;2023-11-21T03:58:12;9.10;99.90
25250;DHT22;13201;51.148;13.738;2023-11-21T04:00:38;9.20;99.90
25250;DHT22;13201;51.148;13.738;2023-11-21T04:03:04;9.20;99.90
25250;DHT22;13201;51.148;13.738;2023-11-21T04:05:30;9.20;99.90
25250;DHT22;13201;51.148;13.738;2023-11-21T04:07:56;9.20;99.90
25250;DHT22;13201;51.148;13.738;2023-11-21T04:10:22;9.10;99.90
25250;DHT22;13201;51.148;13.738;2023-11-21T04:12:48;9.10;99.90
25250;DHT22;13201;51.148;13.738;2023-11-21T04:15:14;9.20;99.90
25250;DHT22;13201;51.148;13.738;2023-11-21T04:17:40;9.20;99.90
25250;DHT22;13201;51.148;13.738;2023-11-21T04:20:06;9.30;99.90
25250;DHT22;13201;51.148;13.738;2023-11-21T04:22:37;9.40;99.90
25250;DHT22;13201;51.148;13.738;2023-11-21T04:25:10;9.40;99.90
25250;DHT22;13201;51.148;13.738;2023-11-21T04:27:37;9.30;99.90
25250;DHT22;13201;51.148;13.738;2023-11-21T04:30:03;9.10;99.90
25250;DHT22;13201;51.148;13.738;2023-11-21T04:32:29;9.20;99.90
25250;DHT22;13201;51.148;13.738;2023-11-21T04:34:55;9.20;99.90
25250;DHT22;13201;51.148;13.738;2023-11-21T04:37:20;9.10;99.90
25250;DHT22;13201;51.148;13.738;2023-11-21T04:39:46;9.10;99.90
25250;DHT22;13201;51.148;13.738;2023-11-21T04:42:12;9.10;99.90
25250;DHT22;13201;51.148;13.738;2023-11-21T04:44:38;9.00;99.90
25250;DHT22;13201;51.148;13.738;2023-11-21T04:47:06;9.00;99.90
25250;DHT22;13201;51.148;13.738;2023-11-21T04:49:33;9.00;99.90
25250;DHT22;13201;51.148;13.738;2023-11-21T04:51:59;9.10;99.90
25250;DHT22;13201;51.148;13.738;2023-11-21T04:54:25;8.90;99.90
25250;DHT22;13201;51.148;13.738;2023-11-21T04:56:50;8.80;99.90
25250;DHT22;13201;51.148;13.738;2023-11-21T04:59:16;9.00;99.90
25250;DHT22;13201;51.148;13.738;2023-11-21T05:01:42;9.00;99.90
25250;DHT22;13201;51.148;13.738;2023-11-21T05:04:07;9.10;99.90
25250;DHT22;13201;51.148;13.738;2023-11-21T05:06:34;9.00;99.90
25250;DHT22;13201;51.148;13.738;2023-11-21T05:09:00;9.00;99.90
25250;DHT22;13201;51.148;13.738;2023-11-21T05:11:26;9.00;99.90
25250;DHT22;13201;51.148;13.738;2023-11-21T05:13:52;9.00;99.90
25250;DHT22;13201;51.148;13.738;2023-11-21T05:16:19;9.00;99.90
25250;DHT22;13201;51.148;13.738;2023-11-21T05:18:45;9.00;99.90
25250;DHT22;13201;51.148;13.738;2023-11-21T05:21:11;9.00;99.90
25250;DHT22;13201;51.148;13.738;2023-11-21T05:23:37;9.00;99.90
25250;DHT22;13201;51.148;13.738;2023-11-21T05:26:03;9.00;99.90
25250;DHT22;13201;51.148;13.738;2023-11-21T05:28:29;9.00;99.90
25250;DHT22;13201;51.148;13.738;2023-11-21T05:30:54;9.10;99.90
25250;DHT22;13201;51.148;13.738;2023-11-21T05:33:20;9.00;99.90
25250;DHT22;13201;51.148;13.738;2023-11-21T05:35:46;9.00;99.90
25250;DHT22;13201;51.148;13.738;2023-11-21T05:38:14;9.10;99.90
25250;DHT22;13201;51.148;13.738;2023-11-21T05:40:39;9.10;99.90
25250;DHT22;13201;51.148;13.738;2023-11-21T05:43:05;9.20;99.90
25250;DHT22;13201;51.148;13.738;2023-11-21T05:45:31;9.20;99.90
25250;DHT22;13201;51.148;13.738;2023-11-21T05:47:58;9.30;99.90
25250;DHT22;13201;51.148;13.738;2023-11-21T05:50:23;9.20;99.90
25250;DHT22;13201;51.148;13.738;2023-11-21T05:52:49;9.10;99.90
25250;DHT22;13201;51.148;13.738;2023-11-21T05:55:15;9.00;99.90
25250;DHT22;13201;51.148;13.738;2023-11-21T05:57:42;9.00;99.90
25250;DHT22;13201;51.148;13.738;2023-11-21T06:00:10;9.10;99.90
25250;DHT22;13201;51.148;13.738;2023-11-21T06:02:40;9.10;99.90
25250;DHT22;13201;51.148;13.738;2023-11-21T06:05:09;9.20;99.90
25250;DHT22;13201;51.148;13.738;2023-11-21T06:07:36;9.10;99.90
25250;DHT22;13201;51.148;13.738;2023-11-21T06:10:04;9.00;99.90
25250;DHT22;13201;51.148;13.738;2023-11-21T06:12:32;9.10;99.90
25250;DHT22;13201;51.148;13.738;2023-11-21T06:15:02;9.10;99.90
25250;DHT22;13201;51.148;13.738;2023-11-21T06:17:31;9.20;99.90
25250;DHT22;13201;51.148;13.738;2023-11-21T06:19:56;9.10;99.90
25250;DHT22;13201;51.148;13.738;2023-11-21T06:22:22;9.10;99.90
25250;DHT22;13201;51.148;13.738;2023-11-21T06:24:48;9.10;99.90
25250;DHT22;13201;51.148;13.738;2023-11-21T06:27:13;9.10;99.90
25250;DHT22;13201;51.148;13.738;2023-11-21T06:29:39;9.20;99.90
25250;DHT22;13201;51.148;13.738;2023-11-21T06:32:05;9.00;99.90
25250;DHT22;13201;51.148;13.738;2023-11-21T06:34:31;9.10;99.90
25250;DHT22;13201;51.148;13.738;2023-11-21T06:36:56;9.10;99.90
25250;DHT22;13201;51.148;13.738;2023-11-21T06:39:22;9.00;99.90
25250;DHT22;13201;51.148;13.738;2023-11-21T06:41:51;9.00;99.90
25250;DHT22;13201;51.148;13.738;2023-11-21T06:44:16;9.10;99.90
25250;DHT22;13201;51.148;13.738;2023-11-21T06:46:42;9.00;99.90
25250;DHT22;13201;51.148;13.738;2023-11-21T06:49:08;9.00;99.90
25250;DHT22;13201;51.148;13.738;2023-11-21T06:51:34;9.10;99.90
25250;DHT22;13201;51.148;13.738;2023-11-21T06:54:00;8.90;99.90
25250;DHT22;13201;51.148;13.738;2023-11-21T06:56:25;9.00;99.90
25250;DHT22;13201;51.148;13.738;2023-11-21T06:58:51;9.00;99.90
25250;DHT22;13201;51.148;13.738;2023-11-21T07:01:20;9.10;99.90
25250;DHT22;13201;51.148;13.738;2023-11-21T07:03:45;9.10;99.90
25250;DHT22;13201;51.148;13.738;2023-11-21T07:06:11;9.00;99.90
25250;DHT22;13201;51.148;13.738;2023-11-21T07:08:37;9.00;99.90
25250;DHT22;13201;51.148;13.738;2023-11-21T07:11:03;9.10;99.90
25250;DHT22;13201;51.148;13.738;2023-11-21T07:13:30;9.00;99.90
25250;DHT22;13201;51.148;13.738;2023-11-21T07:15:57;9.00;99.90
25250;DHT22;13201;51.148;13.738;2023-11-21T07:18:23;9.10;99.90
25250;DHT22;13201;51.148;13.738;2023-11-21T07:20:48;9.00;99.90
25250;DHT22;13201;51.148;13.738;2023-11-21T07:23:14;9.10;99.90
25250;DHT22;13201;51.148;13.738;2023-11-21T07:25:41;9.00;99.90
25250;DHT22;13201;51.148;13.738;2023-11-21T07:28:08;9.10;99.90
25250;DHT22;13201;51.148;13.738;2023-11-21T07:30:34;9.10;99.90
25250;DHT22;13201;51.148;13.738;2023-11-21T07:33:00;9.20;99.90
25250;DHT22;13201;51.148;13.738;2023-11-21T07:35:26;9.20;99.90
25250;DHT22;13201;51.148;13.738;2023-11-21T07:37:52;9.20;99.90
25250;DHT22;13201;51.148;13.738;2023-11-21T07:40:17;9.20;99.90
25250;DHT22;13201;51.148;13.738;2023-11-21T07:42:43;9.20;99.90
25250;DHT22;13201;51.148;13.738;2023-11-21T07:45:09;9.20;99.90
25250;DHT22;13201;51.148;13.738;2023-11-21T07:47:35;9.10;99.90
25250;DHT22;13201;51.148;13.738;2023-11-21T07:50:04;9.20;99.90
25250;DHT22;13201;51.148;13.738;2023-11-21T07:52:30;9.20;99.90
25250;DHT22;13201;51.148;13.738;2023-11-21T07:54:55;9.20;99.90
25250;DHT22;13201;51.148;13.738;2023-11-21T07:57:21;9.20;99.90
25250;DHT22;13201;51.148;13.738;2023-11-21T07:59:47;9.00;99.90
25250;DHT22;13201;51.148;13.738;2023-11-21T08:02:13;8.90;99.90
25250;DHT22;13201;51.148;13.738;2023-11-21T08:04:38;9.10;99.90
25250;DHT22;13201;51.148;13.738;2023-11-21T08:07:04;9.20;99.90
25250;DHT22;13201;51.148;13.738;2023-11-21T08:09:30;9.10;99.90
25250;DHT22;13201;51.148;13.738;2023-11-21T08:11:56;8.70;99.90
25250;DHT22;13201;51.148;13.738;2023-11-21T08:14:22;8.90;99.90
25250;DHT22;13201;51.148;13.738;2023-11-21T08:16:50;8.90;99.90
25250;DHT22;13201;51.148;13.738;2023-11-21T08:19:16;9.00;99.90
25250;DHT22;13201;51.148;13.738;2023-11-21T08:21:43;9.00;99.90
25250;DHT22;13201;51.148;13.738;2023-11-21T08:24:10;9.00;99.90
25250;DHT22;13201;51.148;13.738;2023-11-21T08:26:37;9.00;99.90
25250;DHT22;13201;51.148;13.738;2023-11-21T08:29:03;8.90;99.90
25250;DHT22;13201;51.148;13.738;2023-11-21T08:31:29;9.00;99.90
25250;DHT22;13201;51.148;13.738;2023-11-21T08:33:55;9.00;99.90
25250;DHT22;13201;51.148;13.738;2023-11-21T08:36:23;9.10;99.90
25250;DHT22;13201;51.148;13.738;2023-11-21T08:38:50;9.00;99.90
25250;DHT22;13201;51.148;13.738;2023-11-21T08:41:17;8.90;99.90
25250;DHT22;13201;51.148;13.738;2023-11-21T08:43:47;8.80;99.90
25250;DHT22;13201;51.148;13.738;2023-11-21T08:46:13;8.70;99.90
25250;DHT22;13201;51.148;13.738;2023-11-21T08:48:40;8.70;99.90
25250;DHT22;13201;51.148;13.738;2023-11-21T08:51:06;8.60;99.90
25250;DHT22;13201;51.148;13.738;2023-11-21T08:53:32;8.60;99.90
25250;DHT22;13201;51.148;13.738;2023-11-21T08:55:58;8.70;99.90
25250;DHT22;13201;51.148;13.738;2023-11-21T08:58:25;8.70;99.90
25250;DHT22;13201;51.148;13.738;2023-11-21T09:00:50;8.70;99.90
25250;DHT22;13201;51.148;13.738;2023-11-21T09:03:16;8.80;99.90
25250;DHT22;13201;51.148;13.738;2023-11-21T09:05:42;8.90;99.90
25250;DHT22;13201;51.148;13.738;2023-11-21T09:08:08;8.90;99.90
25250;DHT22;13201;51.148;13.738;2023-11-21T09:10:34;8.90;99.90
25250;DHT22;13201;51.148;13.738;2023-11-21T09:13:02;8.70;99.90
25250;DHT22;13201;51.148;13.738;2023-11-21T09:15:28;8.70;99.90
25250;DHT22;13201;51.148;13.738;2023-11-21T09:17:54;8.80;99.90
25250;DHT22;13201;51.148;13.738;2023-11-21T09:20:20;8.80;99.90
25250;DHT22;13201;51.148;13.738;2023-11-21T09:22:48;8.70;99.90
25250;DHT22;13201;51.148;13.738;2023-11-21T09:25:15;8.60;99.90
25250;DHT22;13201;51.148;13.738;2023-11-21T09:27:41;8.60;99.90
25250;DHT22;13201;51.148;13.738;2023-11-21T09:30:07;8.50;99.90
25250;DHT22;13201;51.148;13.738;2023-11-21T09:32:37;8.40;99.90
25250;DHT22;13201;51.148;13.738;2023-11-21T09:35:06;8.50;99.90
25250;DHT22;13201;51.148;13.738;2023-11-21T09:37:35;8.30;99.90
25250;DHT22;13201;51.148;13.738;2023-11-21T09:40:04;8.10;99.90
25250;DHT22;13201;51.148;13.738;2023-11-21T09:42:36;8.20;99.90
25250;DHT22;13201;51.148;13.738;2023-11-21T09:45:28;8.20;99.90
25250;DHT22;13201;51.148;13.738;2023-11-21T09:47:56;7.90;99.90
25250;DHT22;13201;51.148;13.738;2023-11-21T09:50:23;7.90;99.90
25250;DHT22;13201;51.148;13.738;2023-11-21T09:55:42;7.60;99.90
25250;DHT22;13201;51.148;13.738;2023-11-21T09:58:09;7.70;99.90
25250;DHT22;13201;51.148;13.738;2023-11-21T10:00:42;7.70;99.90
25250;DHT22;13201;51.148;13.738;2023-11-21T10:03:09;7.70;99.90
25250;DHT22;13201;51.148;13.738;2023-11-21T10:05:36;7.70;99.90
25250;DHT22;13201;51.148;13.738;2023-11-21T10:08:04;7.70;99.90
25250;DHT22;13201;51.148;13.738;2023-11-21T10:10:32;7.80;99.90
25250;DHT22;13201;51.148;13.738;2023-11-21T10:13:02;7.90;99.90
25250;DHT22;13201;51.148;13.738;2023-11-21T10:15:29;7.60;99.90
25250;DHT22;13201;51.148;13.738;2023-11-21T10:17:56;7.60;99.90
25250;DHT22;13201;51.148;13.738;2023-11-21T10:20:25;7.70;99.90
25250;DHT22;13201;51.148;13.738;2023-11-21T10:22:51;7.60;99.90
25250;DHT22;13201;51.148;13.738;2023-11-21T10:25:17;7.60;99.90
25250;DHT22;13201;51.148;13.738;2023-11-21T10:27:48;7.70;99.90
25250;DHT22;13201;51.148;13.738;2023-11-21T10:30:16;7.60;99.90
25250;DHT22;13201;51.148;13.738;2023-11-21T10:32:44;7.50;99.90
25250;DHT22;13201;51.148;13.738;2023-11-21T10:35:10;7.50;99.90
25250;DHT22;13201;51.148;13.738;2023-11-21T10:37:41;7.60;99.90
25250;DHT22;13201;51.148;13.738;2023-11-21T10:40:12;7.40;99.90
25250;DHT22;13201;51.148;13.738;2023-11-21T10:42:41;7.40;99.90
25250;DHT22;13201;51.148;13.738;2023-11-21T10:45:10;7.50;99.90
25250;DHT22;13201;51.148;13.738;2023-11-21T10:47:43;7.60;99.90
25250;DHT22;13201;51.148;13.738;2023-11-21T10:50:09;7.50;99.90
25250;DHT22;13201;51.148;13.738;2023-11-21T10:52:42;7.60;99.90
25250;DHT22;13201;51.148;13.738;2023-11-21T10:55:21;7.60;99.90
25250;DHT22;13201;51.148;13.738;2023-11-21T10:57:52;7.80;99.90
25250;DHT22;13201;51.148;13.738;2023-11-21T11:00:18;7.60;99.90
25250;DHT22;13201;51.148;13.738;2023-11-21T11:02:51;7.50;99.90
25250;DHT22;13201;51.148;13.738;2023-11-21T11:05:20;7.70;99.90
25250;DHT22;13201;51.148;13.738;2023-11-21T11:07:50;7.60;99.90
25250;DHT22;13201;51.148;13.738;2023-11-21T11:10:21;7.50;99.90
25250;DHT22;13201;51.148;13.738;2023-11-21T11:12:48;7.40;99.90
25250;DHT22;13201;51.148;13.738;2023-11-21T11:15:16;7.30;99.90
25250;DHT22;13201;51.148;13.738;2023-11-21T11:17:42;7.40;99.90
25250;DHT22;13201;51.148;13.738;2023-11-21T11:20:13;7.20;99.90
25250;DHT22;13201;51.148;13.738;2023-11-21T11:23:17;7.30;99.90
25250;DHT22;13201;51.148;13.738;2023-11-21T11:36:36;7.00;99.90
25250;DHT22;13201;51.148;13.738;2023-11-21T11:39:03;6.90;99.90
25250;DHT22;13201;51.148;13.738;2023-11-21T11:41:31;7.00;99.90
25250;DHT22;13201;51.148;13.738;2023-11-21T11:44:03;6.90;99.90
25250;DHT22;13201;51.148;13.738;2023-11-21T11:46:47;6.80;99.90
25250;DHT22;13201;51.148;13.738;2023-11-21T11:49:29;7.10;99.90
25250;DHT22;13201;51.148;13.738;2023-11-21T11:54:59;6.70;99.90
25250;DHT22;13201;51.148;13.738;2023-11-21T11:57:25;6.60;99.90
25250;DHT22;13201;51.148;13.738;2023-11-21T12:02:50;6.80;99.90
25250;DHT22;13201;51.148;13.738;2023-11-21T12:05:18;6.80;99.90
25250;DHT22;13201;51.148;13.738;2023-11-21T12:08:05;6.90;99.90
25250;DHT22;13201;51.148;13.738;2023-11-21T12:10:33;6.80;99.90
25250;DHT22;13201;51.148;13.738;2023-11-21T12:13:05;6.70;99.90
25250;DHT22;13201;51.148;13.738;2023-11-21T12:15:36;6.50;99.90
25250;DHT22;13201;51.148;13.738;2023-11-21T12:18:02;6.50;99.90
25250;DHT22;13201;51.148;13.738;2023-11-21T12:20:29;6.50;99.90
25250;DHT22;13201;51.148;13.738;2023-11-21T12:22:59;6.40;99.90
25250;DHT22;13201;51.148;13.738;2023-11-21T12:25:30;6.50;99.90
25250;DHT22;13201;51.148;13.738;2023-11-21T12:27:58;6.60;99.90
25250;DHT22;13201;51.148;13.738;2023-11-21T12:30:26;6.50;99.90
25250;DHT22;13201;51.148;13.738;2023-11-21T12:32:57;6.70;99.90
25250;DHT22;13201;51.148;13.738;2023-11-21T12:35:31;6.70;99.90
25250;DHT22;13201;51.148;13.738;2023-11-21T12:38:00;6.70;99.90
25250;DHT22;13201;51.148;13.738;2023-11-21T12:40:28;6.80;99.90
25250;DHT22;13201;51.148;13.738;2023-11-21T12:42:55;6.60;99.90
25250;DHT22;13201;51.148;13.738;2023-11-21T12:45:23;6.50;99.90
25250;DHT22;13201;51.148;13.738;2023-11-21T12:47:52;6.60;99.90
25250;DHT22;13201;51.148;13.738;2023-11-21T12:50:21;6.60;99.90
25250;DHT22;13201;51.148;13.738;2023-11-21T12:52:50;6.70;99.90
25250;DHT22;13201;51.148;13.738;2023-11-21T12:55:21;6.60;99.90
25250;DHT22;13201;51.148;13.738;2023-11-21T12:57:54;6.50;99.90
25250;DHT22;13201;51.148;13.738;2023-11-21T13:00:28;6.50;99.90
25250;DHT22;13201;51.148;13.738;2023-11-21T13:02:55;6.40;99.90
25250;DHT22;13201;51.148;13.738;2023-11-21T13:07:52;6.30;99.90
25250;DHT22;13201;51.148;13.738;2023-11-21T13:10:22;6.40;99.90
25250;DHT22;13201;51.148;13.738;2023-11-21T13:12:51;6.60;99.90
25250;DHT22;13201;51.148;13.738;2023-11-21T13:15:17;6.30;99.90
25250;DHT22;13201;51.148;13.738;2023-11-21T13:17:44;6.20;99.90
25250;DHT22;13201;51.148;13.738;2023-11-21T13:20:13;6.10;99.90
25250;DHT22;13201;51.148;13.738;2023-11-21T13:22:51;6.10;99.90
25250;DHT22;13201;51.148;13.738;2023-11-21T13:25:23;6.30;99.90
25250;DHT22;13201;51.148;13.738;2023-11-21T13:27:49;6.20;99.90
25250;DHT22;13201;51.148;13.738;2023-11-21T13:30:16;6.20;99.90
25250;DHT22;13201;51.148;13.738;2023-11-21T13:32:43;6.30;99.90
25250;DHT22;13201;51.148;13.738;2023-11-21T13:35:09;6.30;99.90
25250;DHT22;13201;51.148;13.738;2023-11-21T13:37:44;6.20;99.90
25250;DHT22;13201;51.148;13.738;2023-11-21T13:40:11;6.30;99.90
25250;DHT22;13201;51.148;13.738;2023-11-21T13:42:41;6.30;99.90
25250;DHT22;13201;51.148;13.738;2023-11-21T13:45:07;6.30;99.90
25250;DHT22;13201;51.148;13.738;2023-11-21T13:47:32;6.20;99.90
25250;DHT22;13201;51.148;13.738;2023-11-21T13:50:01;6.20;99.90
25250;DHT22;13201;51.148;13.738;2023-11-21T13:52:26;6.20;99.90
25250;DHT22;13201;51.148;13.738;2023-11-21T13:54:53;6.10;99.90
25250;DHT22;13201;51.148;13.738;2023-11-21T13:57:19;6.10;99.90
25250;DHT22;13201;51.148;13.738;2023-11-21T13:59:46;6.10;99.90
25250;DHT22;13201;51.148;13.738;2023-11-21T14:02:11;6.10;99.90
25250;DHT22;13201;51.148;13.738;2023-11-21T14:04:43;6.10;99.90
25250;DHT22;13201;51.148;13.738;2023-11-21T14:07:15;6.00;99.90
25250;DHT22;13201;51.148;13.738;2023-11-21T14:09:59;6.00;99.90
25250;DHT22;13201;51.148;13.738;2023-11-21T14:12:25;6.10;99.90
25250;DHT22;13201;51.148;13.738;2023-11-21T14:14:51;6.00;99.90
25250;DHT22;13201;51.148;13.738;2023-11-21T14:17:17;5.90;99.90
25250;DHT22;13201;51.148;13.738;2023-11-21T14:19:43;6.00;99.90
25250;DHT22;13201;51.148;13.738;2023-11-21T14:22:10;6.00;99.90
25250;DHT22;13201;51.148;13.738;2023-11-21T14:24:36;5.90;99.90
25250;DHT22;13201;51.148;13.738;2023-11-21T14:27:02;6.00;99.90
25250;DHT22;13201;51.148;13.738;2023-11-21T14:29:29;5.90;99.90
25250;DHT22;13201;51.148;13.738;2023-11-21T14:31:55;5.90;99.90
25250;DHT22;13201;51.148;13.738;2023-11-21T14:34:23;5.80;99.90
25250;DHT22;13201;51.148;13.738;2023-11-21T14:36:50;5.70;99.90
25250;DHT22;13201;51.148;13.738;2023-11-21T14:39:16;5.80;99.90
25250;DHT22;13201;51.148;13.738;2023-11-21T14:41:54;5.70;99.90
25250;DHT22;13201;51.148;13.738;2023-11-21T14:44:22;5.60;99.90
25250;DHT22;13201;51.148;13.738;2023-11-21T14:46:53;5.60;99.90
25250;DHT22;13201;51.148;13.738;2023-11-21T14:49:20;5.50;99.90
25250;DHT22;13201;51.148;13.738;2023-11-21T14:51:51;5.60;99.90
25250;DHT22;13201;51.148;13.738;2023-11-21T14:54:31;5.70;99.90
25250;DHT22;13201;51.148;13.738;2023-11-21T14:57:10;5.80;99.90
25250;DHT22;13201;51.148;13.738;2023-11-21T14:59:44;5.70;99.90
25250;DHT22;13201;51.148;13.738;2023-11-21T15:02:17;5.60;99.90
25250;DHT22;13201;51.148;13.738;2023-11-21T15:04:47;5.60;99.90
25250;DHT22;13201;51.148;13.738;2023-11-21T15:07:13;5.80;99.90
25250;DHT22;13201;51.148;13.738;2023-11-21T15:09:39;5.80;99.90
25250;DHT22;13201;51.148;13.738;2023-11-21T15:12:09;5.90;99.90
25250;DHT22;13201;51.148;13.738;2023-11-21T15:14:50;5.80;99.90
25250;DHT22;13201;51.148;13.738;2023-11-21T15:17:22;5.90;99.90
25250;DHT22;13201;51.148;13.738;2023-11-21T15:19:49;5.80;99.90
25250;DHT22;13201;51.148;13.738;2023-11-21T15:22:16;5.70;99.90
25250;DHT22;13201;51.148;13.738;2023-11-21T15:24:42;5.80;99.90
25250;DHT22;13201;51.148;13.738;2023-11-21T15:27:11;5.70;99.90
25250;DHT22;13201;51.148;13.738;2023-11-21T15:29:38;5.60;99.90
25250;DHT22;13201;51.148;13.738;2023-11-21T15:32:05;5.50;99.90
25250;DHT22;13201;51.148;13.738;2023-11-21T15:34:32;5.50;99.90
25250;DHT22;13201;51.148;13.738;2023-11-21T15:36:58;5.50;99.90
25250;DHT22;13201;51.148;13.738;2023-11-21T15:39:23;5.50;99.90
25250;DHT22;13201;51.148;13.738;2023-11-21T15:41:54;5.40;99.90
25250;DHT22;13201;51.148;13.738;2023-11-21T15:44:19;5.50;99.90
25250;DHT22;13201;51.148;13.738;2023-11-21T15:46:45;5.60;99.90
25250;DHT22;13201;51.148;13.738;2023-11-21T15:49:11;5.60;99.90
25250;DHT22;13201;51.148;13.738;2023-11-21T15:51:43;5.50;99.90
25250;DHT22;13201;51.148;13.738;2023-11-21T15:54:12;5.40;99.90
25250;DHT22;13201;51.148;13.738;2023-11-21T15:56:38;5.40;99.90
25250;DHT22;13201;51.148;13.738;2023-11-21T15:59:04;5.30;99.90
25250;DHT22;13201;51.148;13.738;2023-11-21T16:01:30;5.40;99.90
25250;DHT22;13201;51.148;13.738;2023-11-21T16:03:57;5.40;99.90
25250;DHT22;13201;51.148;13.738;2023-11-21T16:06:26;5.40;99.90
25250;DHT22;13201;51.148;13.738;2023-11-21T16:08:52;5.50;99.90
25250;DHT22;13201;51.148;13.738;2023-11-21T16:11:18;5.30;99.90
25250;DHT22;13201;51.148;13.738;2023-11-21T16:13:44;5.40;99.90
25250;DHT22;13201;51.148;13.738;2023-11-21T16:16:11;5.50;99.90
25250;DHT22;13201;51.148;13.738;2023-11-21T16:18:37;5.60;99.90